• Join FlightAware (Why Join?)
  • Login
  • US Flag 
01:41AM EDT


 

Airport Tracker/Info


-or-


 

Live Flight TrackerFlight Track Log ✈ SKW6345 ✈ 12-Jun-2013 ✈ KLAX - KSAN

Flight Track Log - Related Links

Times and Time Zones

All times are in EDT time to prevent confusion due to time zone crossing. See the SKW6345 flight status page for this flight to view local times or setup timezone preferences in your user account.

Time Position Orientation Groundspeed Altitude Reporting Facility
EDT Latitude Longitude Course Direction KTS MPH feet Rate Location/Type
08:40PM 33.9333 -118.4333 231° Southwest 146 168 1,900  Level Southern California TRACON
08:41PM 33.9000 -118.4833 231° Southwest 187 215 3,600 1,560 Climbing Southern California TRACON
08:42PM 33.8708 -118.4825 179° South 188 216 4,400 1,500 Climbing Los Angeles Center
08:43PM 33.8178 -118.4722 171° South 189 217 5,900 1,380 Climbing Los Angeles Center
08:44PM 33.7633 -118.4619 171° South 201 231 7,300 1,380 Climbing Los Angeles Center
08:45PM 33.7106 -118.4411 162° South 205 236 8,800 900 Climbing Los Angeles Center
08:46PM 33.6722 -118.3828 128° Southeast 220 253 9,200 180 Climbing Los Angeles Center
08:47PM 33.6269 -118.3036 124° Southeast 238 274 9,200  Level Los Angeles Center
08:48PM 33.5900 -118.2350 123° Southeast 244 281 9,200  Level Los Angeles Center
08:49PM 33.5511 -118.1650 124° Southeast 249 287 9,200  Level Los Angeles Center
08:50PM 33.5133 -118.0956 123° Southeast 249 287 9,200  Level Los Angeles Center
08:51PM 33.4753 -118.0264 123° Southeast 249 287 9,200  Level Los Angeles Center
08:52PM 33.4286 -117.9425 124° Southeast 251 289 9,200  Level Los Angeles Center
08:53PM 33.3897 -117.8725 124° Southeast 253 291 9,200  Level Los Angeles Center
08:54PM 33.3511 -117.8044 124° Southeast 249 287 9,200  Level Los Angeles Center
08:55PM 33.3125 -117.7347 124° Southeast 251 289 9,200  Level Los Angeles Center
08:56PM 33.2739 -117.6656 124° Southeast 249 287 9,200  Level Los Angeles Center
08:57PM 33.2342 -117.5964 124° Southeast 251 289 9,200  Level Los Angeles Center
08:58PM 33.1869 -117.5136 124° Southeast 251 289 9,200 -300 Level Los Angeles Center
08:59PM 33.1486 -117.4442 123° Southeast 251 289 8,700 -540 Descending Los Angeles Center
09:00PM 33.0881 -117.3969 147° Southeast 257 296 8,100 -840 Descending Los Angeles Center
09:01PM 33.0167 -117.3667 160° South 245 282 7,100 -540 Descending Southern California TRACON
09:02PM 32.9667 -117.3500 164° South 230 265 7,100  Level Southern California TRACON
09:03PM 32.9000 -117.3333 168° South 239 275 7,100  Level Southern California TRACON
09:04PM 32.8667 -117.2667 121° Southeast 246 283 7,100  Level Southern California TRACON
09:05PM 32.8167 -117.2000 132° Southeast 252 290 7,100 -480 Level Southern California TRACON
09:06PM 32.8000 -117.1167 103° East 256 295 6,200 -600 Descending Southern California TRACON
09:07PM 32.7833 -117.0500 107° East 240 276 6,000 -360 Descending Southern California TRACON
09:08PM 32.7500 -116.9667 115° Southeast 245 282 5,500 -600 Descending Southern California TRACON
09:09PM 32.7000 -116.9500 164° South 230 265 4,900 -960 Descending Southern California TRACON
09:10PM 32.6833 -117.0000 248° West 210 242 3,600 -1,140 Descending Southern California TRACON
09:11PM 32.7000 -117.0667 287° West 155 178 2,700 -900 Descending Southern California TRACON
09:12PM 32.7167 -117.1000 301° West 145 167 1,800 -960 Descending Southern California TRACON
09:13PM 32.7167 -117.1500 270° West 131 151 800 -960 Descending Southern California TRACON
09:14PM 32.7258 -117.1625 311° West 138 159 500 -420 Descending Los Angeles Center
09:15PM 32.7333 -117.2014 283° West 134 154 200 -300 Descending Los Angeles Center